Latest Weather Observations for Viewbank

IDV60801

Issued at 10:05 am EST Thursday 2 October 2014 (issued every 30 minutes, with the page automatically refreshed every 10 minutes)

About weather observations | Map of weather stations | Latest weather observations for VIC | Other Formats
Station Details ID: 086068 Name: VIEWBANK Lat: -37.74 Lon: 145.10 Height: 66.1 m
Data from the previous 72 hours. | See also: Recent months at Viewbank
Date/Time
EST
Temp
°C
App
Temp
°C
Dew
Point
Rel
Hum
%
Delta-T
°C
Wind Press
QNH
hPa
Press
MSL
hPa
Rain
since 9 am
mm
Dir
 
Spd
km/h
Gust
km/h
Spd
kts
Gust
kts
02/10:00am 12.6 10.7 9.2 80 1.7 SSW 9 15 5 8 1024.8 1024.8 0.0
02/09:30am 12.5 9.7 8.6 77 1.9 WSW 13 17 7 9 1024.7 1024.7 0.0
02/09:00am 12.1 9.9 9.5 84 1.3 W 11 17 6 9 1024.7 1024.7 0.2
02/08:30am 11.4 9.4 10.3 93 0.6 W 11 17 6 9 1024.6 1024.6 -
02/08:00am 10.4 10.2 10.4 100 0.0 NE 2 9 1 5 1024.5 1024.5 -
02/07:30am 9.7 8.5 9.7 100 0.0 NE 6 9 3 5 1024.3 1024.3 -
02/07:00am 9.4 8.5 9.4 100 0.0 NE 4 7 2 4 1024.3 1024.3 -
02/06:30am 9.0 8.8 9.0 100 0.0 CALM 0 0 0 0 1024.2 1024.2 -
02/06:00am 8.6 8.3 8.5 99 0.0 WSW 0 4 0 2 1024.0 1024.0 -
02/05:30am 8.9 8.3 8.8 99 0.0 NW 2 7 1 4 1023.9 1023.9 -
02/05:00am 8.6 7.8 8.2 97 0.2 W 2 7 1 4 1023.8 1023.8 -
02/04:30am 8.2 7.6 7.3 94 0.4 CALM 0 0 0 0 1023.9 1023.9 -
02/04:00am 8.0 6.9 6.9 93 0.5 NW 2 7 1 4 1023.7 1023.7 -
02/03:30am 7.8 6.1 6.1 89 0.8 NNE 4 7 2 4 1023.8 1023.8 -
02/03:00am 7.6 5.5 5.9 89 0.8 NNE 6 7 3 4 1024.0 1024.0 0.0
02/02:30am 7.4 5.6 5.4 87 0.9 NNE 4 7 2 4 1024.3 1024.3 -
02/02:00am 7.4 5.9 5.2 86 1.0 N 2 6 1 3 1024.5 1024.5 -
02/01:30am 7.5 5.7 5.5 87 0.9 NNE 4 7 2 4 1024.8 1024.8 -
02/01:00am 7.7 6.2 4.8 82 1.3 N 2 6 1 3 1024.9 1024.9 -
02/12:30am 8.4 6.1 5.0 79 1.5 NW 6 11 3 6 1025.0 1025.0 -
02/12:00am 8.6 6.3 4.8 77 1.7 W 6 11 3 6 1025.1 1025.1 -
 
Date/Time
EST
Temp
°C
App
Temp
°C
Dew
Point
Rel
Hum
%
Delta-T
°C
Wind Press
QNH
hPa
Press
MSL
hPa
Rain
since 9 am
mm
Dir
 
Spd
km/h
Gust
km/h
Spd
kts
Gust
kts
01/11:30pm 8.8 6.3 4.8 76 1.8 WNW 7 9 4 5 1025.3 1025.3 -
01/11:00pm 9.2 6.7 4.8 74 2.0 WNW 7 13 4 7 1025.5 1025.5 -
01/10:30pm 9.9 6.7 4.9 71 2.3 W 11 17 6 9 1025.6 1025.6 -
01/10:00pm 10.5 7.3 5.1 69 2.4 W 11 19 6 10 1025.7 1025.7 -
01/09:30pm 10.7 7.8 4.8 67 2.7 WSW 9 15 5 8 1025.7 1025.7 -
01/09:00pm 10.9 8.0 4.8 66 2.8 SW 9 15 5 8 1025.6 1025.6 0.0
01/08:30pm 11.5 8.8 5.8 68 2.7 SW 9 15 5 8 1025.5 1025.5 -
01/08:00pm 11.4 10.5 6.1 70 2.5 CALM 0 7 0 4 1025.2 1025.2 -
01/07:30pm 11.4 10.1 5.9 69 2.6 SSW 2 6 1 3 1024.9 1024.9 -
01/07:00pm 11.3 9.2 5.8 69 2.5 S 6 9 3 5 1024.6 1024.6 -
01/06:30pm 11.5 9.2 5.8 68 2.7 SSW 7 15 4 8 1024.3 1024.3 -
01/06:00pm 11.9 8.8 5.5 65 3.0 SSW 11 15 6 8 1024.0 1024.0 -
01/05:30pm 12.8 9.4 5.7 62 3.3 S 13 17 7 9 1024.1 1024.1 -
01/05:00pm 13.1 10.1 5.8 61 3.4 S 11 15 6 8 1023.9 1023.9 -
01/04:30pm 13.2 8.9 5.4 59 3.7 SW 17 28 9 15 1024.0 1024.0 -
01/04:00pm 13.3 9.4 5.2 58 3.8 SSW 15 26 8 14 1023.7 1023.7 -
01/03:30pm 13.1 8.8 5.3 59 3.6 SW 17 26 9 14 1024.0 1024.0 -
01/03:00pm 12.8 7.9 5.0 59 3.6 SW 20 35 11 19 1024.0 1024.0 0.2
01/02:30pm 14.8 11.0 5.9 55 4.3 SSW 15 24 8 13 1023.5 1023.5 -
01/02:00pm 15.3 10.8 4.1 47 5.2 SW 17 28 9 15 1023.4 1023.4 -
01/01:30pm 14.6 9.8 4.9 52 4.5 SW 19 33 10 18 1023.8 1023.8 -
01/01:00pm 14.3 9.1 3.5 48 4.9 SW 20 33 11 18 1024.0 1024.0 -
01/12:30pm 15.0 10.0 3.5 46 5.3 SSW 19 30 10 16 1023.8 1023.8 -
01/12:00pm 14.6 9.7 4.3 50 4.7 SW 19 32 10 17 1023.9 1023.9 -
01/11:30am 14.0 8.7 2.9 47 5.0 SW 20 35 11 19 1023.8 1023.8 0.0
01/11:00am 13.9 8.9 4.8 54 4.2 SW 20 33 11 18 1023.8 1023.8 0.0
01/10:30am 12.8 7.8 3.5 53 4.2 SW 19 33 10 18 1023.8 1023.8 0.0
01/10:00am 12.7 7.6 3.9 55 4.0 SSW 20 43 11 23 1023.6 1023.6 0.0
01/09:30am 12.0 7.8 4.0 58 3.6 SSW 15 24 8 13 1023.4 1023.4 0.0
01/09:00am 11.5 7.5 4.7 63 3.1 SW 15 24 8 13 1023.0 1023.0 3.2
01/08:30am 10.3 6.2 4.5 67 2.6 WSW 15 24 8 13 1022.6 1022.6 3.2
01/08:00am 9.0 4.9 4.2 72 2.1 WSW 15 24 8 13 1022.2 1022.2 3.2
01/07:30am 7.5 5.1 5.3 86 1.0 WNW 7 9 4 5 1021.8 1021.8 3.2
01/07:00am 6.2 4.4 5.2 93 0.4 SE 4 9 2 5 1021.4 1021.4 3.2
01/06:30am 5.7 3.6 3.7 87 0.8 W 4 7 2 4 1020.8 1020.8 3.2
01/06:00am 5.8 3.2 3.3 84 1.0 W 6 7 3 4 1020.3 1020.3 3.2
01/05:30am 6.0 2.8 3.2 82 1.2 W 9 17 5 9 1019.7 1019.7 3.2
01/05:00am 6.0 2.8 3.0 81 1.2 W 9 19 5 10 1019.2 1019.2 3.2
01/04:30am 6.3 2.7 2.8 78 1.5 WNW 11 17 6 9 1018.9 1018.9 3.2
01/04:00am 6.9 3.3 3.2 77 1.6 W 11 17 6 9 1018.5 1018.5 3.2
01/03:30am 6.4 3.1 2.7 77 1.5 W 9 15 5 8 1018.2 1018.2 3.2
01/03:00am 6.8 2.8 2.7 75 1.7 W 13 22 7 12 1017.7 1017.7 3.2
01/02:30am 7.2 2.5 2.9 74 1.8 W 17 28 9 15 1017.5 1017.5 3.2
01/02:00am 7.3 3.3 3.0 74 1.8 WSW 13 22 7 12 1017.3 1017.3 3.2
01/01:30am 7.6 2.5 3.1 73 1.9 W 19 30 10 16 1016.8 1016.8 3.2
01/01:00am 8.0 2.9 3.3 72 2.0 W 19 30 10 16 1016.5 1016.5 3.2
01/12:30am 7.9 2.6 3.0 71 2.1 W 20 30 11 16 1016.1 1016.1 3.2
01/12:00am 8.0 2.9 2.9 70 2.2 W 19 28 10 15 1015.8 1015.8 3.2
 
Date/Time
EST
Temp
°C
App
Temp
°C
Dew
Point
Rel
Hum
%
Delta-T
°C
Wind Press
QNH
hPa
Press
MSL
hPa
Rain
since 9 am
mm
Dir
 
Spd
km/h
Gust
km/h
Spd
kts
Gust
kts
30/11:30pm 8.2 3.4 2.4 67 2.4 W 17 28 9 15 1015.3 1015.3 3.2
30/11:00pm 9.0 3.2 2.1 62 2.9 W 22 35 12 19 1015.0 1015.0 3.2
30/10:30pm 9.2 3.4 2.3 62 2.9 W 22 35 12 19 1014.6 1014.6 3.2
30/10:00pm 9.3 4.2 2.9 64 2.7 W 19 30 10 16 1014.1 1014.1 3.2
30/09:30pm 9.5 4.5 3.5 66 2.6 W 19 28 10 15 1013.7 1013.7 3.2
30/09:00pm 9.7 5.1 3.9 67 2.6 W 17 26 9 14 1013.5 1013.5 3.2
30/08:30pm 10.1 4.3 4.3 67 2.6 W 24 44 13 24 1013.4 1013.4 3.2
30/08:00pm 10.2 4.4 4.4 67 2.6 W 24 41 13 22 1012.9 1012.9 3.2
30/07:30pm 10.4 5.6 4.8 68 2.5 WSW 19 33 10 18 1012.3 1012.3 3.2
30/07:00pm 10.5 6.1 4.9 68 2.5 W 17 26 9 14 1011.6 1011.7 3.2
30/06:30pm 11.3 6.5 5.6 68 2.6 W 20 41 11 22 1011.1 1011.1 3.2
30/06:00pm 11.1 7.3 5.6 69 2.5 WNW 15 28 8 15 1010.7 1010.7 3.2
30/05:30pm 10.7 5.8 5.3 69 2.5 W 20 33 11 18 1010.3 1010.3 3.2
30/05:01pm 9.7 3.2 6.4 80 1.5 W 30 54 16 29 1009.9 1009.9 3.2
30/05:00pm 9.5 3.1 6.8 83 1.3 W 30 46 16 25 1009.9 1009.9 3.2
30/04:30pm 9.4 1.1 7.8 90 0.8 WSW 41 80 22 43 1009.4 1009.4 3.0
30/04:00pm 10.9 3.7 10.7 99 0.1 WSW 39 76 21 41 1008.2 1008.2 1.4
30/03:52pm 11.9 4.9 11.4 97 0.3 WSW 39 69 21 37 1007.2 1007.2 1.0
30/03:30pm 13.1 4.5 11.5 90 0.9 WSW 48 82 26 44 1005.1 1005.1 0.4
30/03:18pm 15.9 4.0 7.1 56 4.4 WSW 59 78 32 42 1004.3 1004.3 0.0
30/03:15pm 19.5 11.1 5.6 40 6.9 W 39 69 21 37 1004.2 1004.2 0.0
30/03:00pm 22.4 14.8 4.0 30 9.0 NW 33 56 18 30 1003.1 1003.1 0.0
30/02:30pm 23.1 14.4 4.1 29 9.3 NW 39 61 21 33 1002.6 1002.6 0.0
30/02:00pm 22.3 15.8 6.5 36 8.1 NNW 30 52 16 28 1003.0 1003.0 0.0
30/01:35pm 21.9 16.1 8.1 41 7.2 NNW 28 59 15 32 1003.3 1003.3 0.0
30/01:30pm 21.7 16.6 7.5 40 7.4 NNW 24 44 13 24 1003.4 1003.4 0.0
30/01:04pm 21.4 15.6 8.0 42 7.0 NNW 28 54 15 29 1004.5 1004.5 0.0
30/01:00pm 21.2 15.8 7.8 42 7.0 NNW 26 54 14 29 1004.6 1004.6 0.0
30/12:40pm 20.5 14.6 7.5 43 6.7 N 28 52 15 28 1005.2 1005.2 0.0
30/12:30pm 20.7 15.4 8.4 45 6.5 N 26 43 14 23 1005.5 1005.5 0.0
30/12:00pm 20.1 13.6 8.8 48 6.0 N 33 56 18 30 1006.2 1006.2 0.0
30/11:30am 20.0 13.4 7.7 45 6.3 NNW 32 57 17 31 1006.6 1006.6 0.0
30/11:08am 20.7 14.8 7.7 43 6.7 NNW 28 46 15 25 1006.9 1006.9 0.0
30/11:00am 21.1 15.1 7.0 40 7.2 N 28 43 15 23 1006.9 1006.9 0.0
30/10:30am 20.9 16.5 7.5 42 6.9 N 20 32 11 17 1007.1 1007.1 0.0
30/10:00am 20.2 16.0 8.2 46 6.3 N 20 37 11 20 1007.8 1007.8 0.0
30/09:30am 18.4 13.7 7.8 50 5.4 N 22 37 12 20 1008.7 1008.7 0.0
30/09:00am 17.7 13.7 8.3 54 4.8 N 19 30 10 16 1009.5 1009.5 0.0
30/08:30am 16.5 12.4 8.7 60 4.0 N 20 33 11 18 1009.8 1009.8 0.0
30/08:00am 15.4 11.2 8.4 63 3.6 N 20 33 11 18 1010.2 1010.2 0.0
30/07:30am 14.6 11.0 8.3 66 3.2 N 17 26 9 14 1010.5 1010.5 0.0
30/07:00am 13.7 10.1 8.3 70 2.7 N 17 26 9 14 1010.5 1010.5 0.0
30/06:30am 13.2 9.6 8.3 72 2.4 N 17 24 9 13 1010.3 1010.3 0.0
30/06:00am 13.4 10.2 8.3 71 2.6 N 15 28 8 15 1009.9 1009.9 0.0
30/05:30am 13.8 10.2 8.4 70 2.7 N 17 28 9 15 1009.6 1009.6 0.0
30/05:00am 14.4 9.9 8.4 67 3.0 N 22 35 12 19 1009.4 1009.4 0.0
30/04:30am 14.3 10.4 8.5 68 2.9 N 19 32 10 17 1009.1 1009.1 0.0
30/04:00am 13.9 10.4 8.7 71 2.6 N 17 28 9 15 1009.1 1009.1 0.0
30/03:30am 13.6 11.1 8.2 70 2.7 NNW 11 17 6 9 1009.6 1009.6 0.0
30/03:00am 14.9 12.0 8.2 64 3.4 NW 13 20 7 11 1009.5 1009.5 0.0
30/02:30am 16.2 11.9 7.9 58 4.2 NNW 20 33 11 18 1009.8 1009.8 0.0
30/02:00am 16.4 12.1 7.9 57 4.3 N 20 32 11 17 1010.1 1010.1 0.0
30/01:30am 16.3 13.5 8.5 60 4.0 N 13 24 7 13 1010.6 1010.6 0.0
30/01:00am 15.1 12.4 8.8 66 3.2 N 13 19 7 10 1010.9 1010.9 0.0
30/12:30am 14.7 12.8 9.1 69 2.9 N 9 15 5 8 1011.3 1011.4 0.0
30/12:00am 14.0 13.0 8.8 71 2.6 N 4 7 2 4 1011.7 1011.8 0.0
 
Date/Time
EST
Temp
°C
App
Temp
°C
Dew
Point
Rel
Hum
%
Delta-T
°C
Wind Press
QNH
hPa
Press
MSL
hPa
Rain
since 9 am
mm
Dir
 
Spd
km/h
Gust
km/h
Spd
kts
Gust
kts
29/11:30pm 14.6 13.2 8.8 68 2.9 N 6 7 3 4 1012.1 1012.2 0.0
29/11:00pm 14.5 13.5 8.9 69 2.9 NE 4 7 2 4 1012.3 1012.3 0.0
29/10:30pm 14.8 14.1 8.7 67 3.1 NE 2 7 1 4 1012.4 1012.4 0.0
29/10:00pm 14.8 13.8 8.7 67 3.1 NE 4 7 2 4 1012.4 1012.4 0.0
29/09:30pm 15.1 13.7 8.8 66 3.2 NE 6 7 3 4 1012.3 1012.3 0.0
29/09:00pm 16.1 14.6 9.1 63 3.6 N 7 9 4 5 1012.5 1012.5 0.0
29/08:30pm 16.2 14.8 8.9 62 3.8 NE 6 11 3 6 1012.3 1012.3 0.0
29/08:00pm 16.5 14.9 8.7 60 4.0 NE 7 11 4 6 1012.0 1012.1 0.0
29/07:30pm 17.2 15.4 8.1 55 4.6 NE 7 11 4 6 1011.8 1011.9 0.0
29/07:00pm 17.9 16.2 7.6 51 5.2 NNE 6 9 3 5 1011.7 1011.8 0.0
29/06:30pm 19.1 16.1 7.8 48 5.8 N 13 20 7 11 1011.6 1011.7 0.0
29/06:00pm 19.9 16.5 7.6 45 6.3 N 15 22 8 12 1011.3 1011.4 0.0
29/05:30pm 20.6 16.7 7.2 42 6.9 N 17 32 9 17 1011.4 1011.5 0.0
29/05:00pm 20.7 16.8 8.7 46 6.3 N 19 33 10 18 1011.3 1011.4 0.0
29/04:30pm 20.9 16.1 7.5 42 6.9 NNW 22 39 12 21 1011.2 1011.2 0.0
29/04:00pm 21.4 16.3 7.6 41 7.2 N 24 37 13 20 1011.1 1011.1 0.0
29/03:30pm 21.6 17.3 7.8 41 7.2 N 20 33 11 18 1011.0 1011.0 0.0
29/03:00pm 21.5 16.3 7.3 40 7.3 N 24 35 13 19 1011.1 1011.1 0.0
29/02:30pm 21.2 15.5 6.7 39 7.4 NNW 26 37 14 20 1011.2 1011.2 0.0
29/02:00pm 21.3 16.6 7.9 42 7.0 N 22 35 12 19 1011.5 1011.6 0.0
29/01:30pm 20.7 15.3 6.3 39 7.3 N 24 30 13 16 1012.0 1012.1 0.0
29/01:00pm 20.9 17.1 7.5 42 6.9 NW 17 30 9 16 1012.5 1012.5 0.0
29/12:30pm 20.4 16.1 7.1 42 6.8 NNW 19 32 10 17 1012.9 1012.9 0.0
29/12:00pm 20.1 17.1 7.8 45 6.4 N 13 22 7 12 1013.1 1013.1 0.0
29/11:30am 19.5 17.3 7.9 47 6.0 NNW 9 17 5 9 1013.6 1013.6 0.0
29/11:00am 18.2 14.5 6.4 46 5.9 NNW 15 24 8 13 1013.9 1013.9 0.0
29/10:30am 17.9 14.4 7.3 50 5.3 NW 15 28 8 15 1014.1 1014.1 0.0

Other Formats:

Comma delimited format used in spreadsheet applications
http://www.bom.gov.au/fwo/IDV60801/IDV60801.95874.axf

JavaScript Object Notation format (JSON) in row-major order
http://www.bom.gov.au/fwo/IDV60801/IDV60801.95874.json